Skip to main content.
Our real time weather data display below is updated continuously via our 24/7 live data feed.
 TIME   TEMPERATURE   WINDSPEED   DIRECTION   HUMIDITY   BAROMETER   RAINFALL 
1:15 21.0°C (69.8°F) 9.3 kmh (5.8 mph) 73% 1013.9hPa (29.94 inHg) 0.0mm (0.00 in.)
12:15 21.0°C (69.8 °F) 3.7 kmh (2.3 mph) 73% 1013.9hPa (29.94 inHg) 0.0mm (0.00 in.)
11:15 21.0°C (69.8 °F) 5.6 kmh (3.5 mph) 73% 1013.9hPa (29.94 inHg) 0.0mm (0.00 in.)
10:15 22.0°C (71.6 °F) 11.1 kmh (6.9 mph) 73% 1013.9hPa (29.94 inHg) 0.0mm (0.00 in.)
9:15 23.0°C (73.4 °F) 9.3 kmh (5.8 mph) 56% 1012.9hPa (29.91 inHg) 0.0mm (0.00 in.)
8:15 26.0°C (78.8 °F) 13.0 kmh (8.1 mph) 41% 1012.9hPa (29.91 inHg) 0.0mm (0.00 in.)
7:15 28.0°C (82.4 °F) 16.7 kmh (10.4 mph) 32% 1012.9hPa (29.91 inHg) 0.0mm (0.00 in.)
6:15 29.0°C (84.2 °F) 20.4 kmh (12.7 mph) 28% 1013.9hPa (29.94 inHg) 0.0mm (0.00 in.)
5:09 29.0°C (84.2 °F) 16.7 kmh (10.4 mph) 30% 1013.9hPa (29.94 inHg) 0.0mm (0.00 in.)
4:09 30.0°C (86.0 °F) 18.5 kmh (11.5 mph) 33% 1013.9hPa (29.94 inHg) 0.0mm (0.00 in.)
3:09 30.0°C (86.0 °F) 16.7 kmh (10.4 mph) 40% 1013.9hPa (29.94 inHg) 0.0mm (0.00 in.)
2:09 29.0°C (84.2 °F) 16.7 kmh (10.4 mph) 54% 1013.9hPa (29.94 inHg) 0.0mm (0.00 in.)
1:09 30.0°C (86.0 °F) 5.6 kmh (3.5 mph) 42% 1013.9hPa (29.94 inHg) 0.0mm (0.00 in.)
12:07 29.0°C (84.2 °F) 14.8 kmh (9.2 mph) 54% 1014.9hPa (29.97 inHg) 0.0mm (0.00 in.)
11:07 28.0°C (82.4 °F) 5.6 kmh (3.5 mph) 58% 1013.9hPa (29.94 inHg) 0.0mm (0.00 in.)
10:07 28.0°C (82.4 °F) 5.6 kmh (3.5 mph) 54% 1013.9hPa (29.94 inHg) 0.0mm (0.00 in.)
9:07 26.0°C (78.8 °F) 7.4 kmh (4.6 mph) 65% 1013.9hPa (29.94 inHg) 0.0mm (0.00 in.)
8:07 23.0°C (73.4 °F) 5.6 kmh (3.5 mph) 94% 1013.9hPa (29.94 inHg) 0.0mm (0.00 in.)
7:07 22.0°C (71.6 °F) 1.9 kmh (1.2 mph) 94% 1013.9hPa (29.94 inHg) 0.0mm (0.00 in.)
6:07 21.0°C (69.8 °F) 5.6 kmh (3.5 mph) 100% 1013.9hPa (29.94 inHg) 0.0mm (0.00 in.)
5:07 22.0°C (71.6 °F) 3.7 kmh (2.3 mph) 88% 1012.9hPa (29.91 inHg) 0.0mm (0.00 in.)
4:07 22.0°C (71.6 °F) 5.6 kmh (3.5 mph) 88% 1012.9hPa (29.91 inHg) 0.0mm (0.00 in.)
3:07 22.0°C (71.6 °F) 1.9 kmh (1.2 mph) 88% 1012.9hPa (29.91 inHg) 0.0mm (0.00 in.)
2:07 23.0°C (73.4 °F) 1.9 kmh (1.2 mph) 83% 1013.9hPa (29.94 inHg) 0.0mm (0.00 in.)